createdAt,value
2023-10-10T00:00:41.197Z,15.82
2023-10-10T00:01:41.182Z,15.80
2023-10-10T00:02:41.292Z,15.80
2023-10-10T00:03:41.673Z,15.77
2023-10-10T00:04:41.169Z,15.79
2023-10-10T00:05:41.153Z,15.79
2023-10-10T00:06:41.159Z,15.75
2023-10-10T00:07:41.141Z,15.76
2023-10-10T00:08:41.072Z,15.75
2023-10-10T00:09:41.063Z,15.75
2023-10-10T00:10:41.069Z,15.75
2023-10-10T00:11:41.053Z,15.72
2023-10-10T00:12:41.064Z,15.73
2023-10-10T00:13:41.066Z,15.73
2023-10-10T00:14:41.044Z,15.75
2023-10-10T00:15:41.031Z,15.75
2023-10-10T00:16:40.983Z,15.75
2023-10-10T00:17:41.018Z,15.73
2023-10-10T00:18:40.957Z,15.75
2023-10-10T00:19:40.967Z,15.73
2023-10-10T00:20:41.036Z,15.75
2023-10-10T00:21:40.951Z,15.73
2023-10-10T00:22:40.915Z,15.73
2023-10-10T00:23:40.940Z,15.73
2023-10-10T00:24:40.910Z,15.73
2023-10-10T00:25:40.904Z,15.77
2023-10-10T00:26:40.899Z,15.77
2023-10-10T00:27:40.902Z,15.79
2023-10-10T00:28:40.850Z,15.80
2023-10-10T00:29:40.903Z,15.82
2023-10-10T00:30:40.908Z,15.82
2023-10-10T00:31:40.854Z,15.80
2023-10-10T00:32:40.907Z,15.80
2023-10-10T00:33:40.814Z,15.80
2023-10-10T00:34:40.903Z,15.80
2023-10-10T00:35:40.833Z,15.82
2023-10-10T00:36:40.763Z,15.83
2023-10-10T00:37:40.778Z,15.82
2023-10-10T00:38:40.826Z,15.79
2023-10-10T00:39:40.744Z,15.79
2023-10-10T00:40:40.738Z,15.79
2023-10-10T00:41:40.716Z,15.79
2023-10-10T00:42:40.693Z,15.80
2023-10-10T00:43:40.721Z,15.80
2023-10-10T00:44:40.902Z,15.77
2023-10-10T00:45:40.680Z,15.76
2023-10-10T00:46:40.685Z,15.77
2023-10-10T00:47:40.715Z,15.76
2023-10-10T00:48:40.635Z,15.77
2023-10-10T00:49:40.678Z,15.76
2023-10-10T00:50:40.602Z,15.76
2023-10-10T00:51:40.607Z,15.73
2023-10-10T00:52:40.586Z,15.73
2023-10-10T00:53:40.596Z,15.72
2023-10-10T00:54:40.856Z,15.70
2023-10-10T00:55:40.585Z,15.70
2023-10-10T00:56:40.553Z,15.70
2023-10-10T00:57:40.567Z,15.68
2023-10-10T00:58:40.549Z,15.65
2023-10-10T00:59:40.533Z,15.64
2023-10-10T01:00:40.594Z,15.62
2023-10-10T01:01:40.504Z,15.61
2023-10-10T01:02:40.624Z,15.59
2023-10-10T01:03:40.622Z,15.61
2023-10-10T01:04:40.501Z,15.61
2023-10-10T01:05:40.472Z,15.61
2023-10-10T01:06:40.448Z,15.57
2023-10-10T01:07:40.442Z,15.55
2023-10-10T01:08:40.425Z,15.54
2023-10-10T01:09:40.397Z,15.57
2023-10-10T01:10:40.410Z,15.57
2023-10-10T01:11:40.392Z,15.55
2023-10-10T01:12:40.458Z,15.55
2023-10-10T01:13:40.365Z,15.54
2023-10-10T01:14:40.371Z,15.55
2023-10-10T01:15:40.335Z,15.52
2023-10-10T01:16:40.371Z,15.55
2023-10-10T01:17:40.380Z,15.52
2023-10-10T01:18:40.340Z,15.52
2023-10-10T01:19:40.297Z,15.55
2023-10-10T01:20:40.333Z,15.57
2023-10-10T01:21:40.278Z,15.57
2023-10-10T01:22:40.280Z,15.52
2023-10-10T01:23:40.282Z,15.52
2023-10-10T01:24:40.256Z,15.49
2023-10-10T01:25:40.280Z,15.51
2023-10-10T01:26:40.232Z,15.51
2023-10-10T01:27:40.214Z,15.51
2023-10-10T01:28:40.216Z,15.44
2023-10-10T01:29:40.234Z,15.43
2023-10-10T06:01:00.496Z,13.62
2023-10-10T06:02:01.448Z,13.59
2023-10-10T06:03:01.566Z,13.60
2023-10-10T06:04:01.477Z,13.60
2023-10-10T06:05:01.451Z,13.63
2023-10-10T06:06:01.407Z,13.62
2023-10-10T06:07:01.407Z,13.60
2023-10-10T06:08:01.398Z,13.62
2023-10-10T06:09:01.632Z,13.63
2023-10-10T06:10:01.359Z,13.65
2023-10-10T06:11:01.570Z,13.67
2023-10-10T06:12:01.412Z,13.67
2023-10-10T06:13:01.334Z,13.65
2023-10-10T06:14:01.318Z,13.63
2023-10-10T06:15:01.295Z,13.68
2023-10-10T06:16:01.311Z,13.70
2023-10-10T06:17:01.315Z,13.71
2023-10-10T06:18:01.325Z,13.71
2023-10-10T06:19:01.290Z,13.71
2023-10-10T06:20:01.291Z,13.71
2023-10-10T06:21:09.182Z,13.72
2023-10-10T06:22:01.233Z,13.71
2023-10-10T06:23:01.209Z,13.72
2023-10-10T06:24:01.203Z,13.74
2023-10-10T06:25:01.763Z,13.77
2023-10-10T06:26:01.204Z,13.77
2023-10-10T06:27:01.160Z,13.78
2023-10-10T06:28:01.167Z,13.81
2023-10-10T06:29:01.139Z,13.85
2023-10-10T06:30:01.177Z,13.86
2023-10-10T06:31:01.422Z,13.89
2023-10-10T06:32:01.115Z,13.93
2023-10-10T06:33:01.214Z,13.97
2023-10-10T06:34:01.258Z,13.97
2023-10-10T06:35:01.068Z,14.04
2023-10-10T06:36:01.079Z,14.04
2023-10-10T06:37:01.062Z,14.05
2023-10-10T06:38:01.069Z,14.07
2023-10-10T06:39:01.182Z,14.10
2023-10-10T06:40:01.156Z,14.08
2023-10-10T06:41:01.013Z,14.10
2023-10-10T06:42:01.021Z,14.10
2023-10-10T06:43:02.711Z,14.10
2023-10-10T06:44:01.026Z,14.08
2023-10-10T06:45:01.071Z,14.11
2023-10-10T06:46:01.017Z,14.11
2023-10-10T06:47:00.941Z,14.12
2023-10-10T06:48:01.041Z,14.15
2023-10-10T06:49:00.921Z,14.17
2023-10-10T06:50:02.833Z,14.20
2023-10-10T06:51:00.911Z,14.20
2023-10-10T06:52:00.911Z,14.23
2023-10-10T06:53:00.884Z,14.23
2023-10-10T06:54:00.886Z,14.23
2023-10-10T06:55:00.874Z,14.25
2023-10-10T06:56:00.863Z,14.26
2023-10-10T06:57:01.258Z,14.29
2023-10-10T06:58:00.836Z,14.29
2023-10-10T06:59:00.830Z,14.32
2023-10-10T07:00:00.815Z,14.32
2023-10-10T07:01:00.915Z,14.35
2023-10-10T07:02:00.781Z,14.36
2023-10-10T07:03:01.131Z,14.36
2023-10-10T07:04:00.924Z,14.40
2023-10-10T07:05:00.793Z,14.41
2023-10-10T07:06:00.729Z,14.43
2023-10-10T07:07:00.760Z,14.44
2023-10-10T07:08:00.801Z,14.47
2023-10-10T07:09:00.724Z,14.51
2023-10-10T07:10:00.706Z,14.50
2023-10-10T07:11:00.698Z,14.51
2023-10-10T07:12:00.709Z,14.55
2023-10-10T07:13:00.697Z,14.58
2023-10-10T07:14:00.788Z,14.58
2023-10-10T07:15:00.726Z,14.59
2023-10-10T07:16:00.711Z,14.60
2023-10-10T07:17:00.650Z,14.62
2023-10-10T07:18:00.738Z,14.63
2023-10-10T07:19:00.658Z,14.66
2023-10-10T07:20:00.593Z,14.65
2023-10-10T07:21:00.688Z,14.65
2023-10-10T07:22:00.564Z,14.66
2023-10-10T07:23:00.687Z,14.66
2023-10-10T07:24:00.573Z,14.69
2023-10-10T07:25:00.582Z,14.72
2023-10-10T07:26:00.568Z,14.73
2023-10-10T07:27:00.532Z,14.73
2023-10-10T07:28:00.568Z,14.77
2023-10-10T07:29:00.520Z,14.77
2023-10-10T07:30:00.506Z,14.78
2023-10-10T07:31:00.575Z,14.78
2023-10-10T07:32:00.461Z,14.81
2023-10-10T07:33:06.628Z,14.81
2023-10-10T07:34:00.474Z,14.84
2023-10-10T07:35:07.504Z,14.84
2023-10-10T07:36:06.427Z,14.86
2023-10-10T07:37:00.404Z,14.88
2023-10-10T07:39:16.887Z,14.92
2023-10-10T07:40:17.646Z,14.92
2023-10-10T07:41:17.639Z,14.94
2023-10-10T07:42:17.627Z,14.96
2023-10-10T07:43:17.626Z,14.99
2023-10-10T07:44:18.293Z,15.00
2023-10-10T07:45:17.563Z,14.99
2023-10-10T07:46:17.594Z,15.02
2023-10-10T07:47:17.702Z,15.03
2023-10-10T07:48:17.660Z,15.04
2023-10-10T07:49:17.521Z,15.06
2023-10-10T07:50:17.552Z,15.07
2023-10-10T07:51:17.498Z,15.09
2023-10-10T07:52:17.736Z,15.10
2023-10-10T07:53:17.523Z,15.14
2023-10-10T07:54:17.638Z,15.15
2023-10-10T07:55:17.460Z,15.17
2023-10-10T07:56:17.481Z,15.17
2023-10-10T07:57:17.453Z,15.18
2023-10-10T07:58:17.461Z,15.19
2023-10-10T07:59:17.479Z,15.21
2023-10-10T08:00:17.415Z,15.22
2023-10-10T08:01:17.580Z,15.22
2023-10-10T08:02:17.415Z,15.24
2023-10-10T08:03:17.512Z,15.27
2023-10-10T08:04:18.535Z,15.29
2023-10-10T08:05:17.383Z,15.29
2023-10-10T08:06:17.356Z,15.29
2023-10-10T08:07:17.321Z,15.31
2023-10-10T08:08:17.352Z,15.35
2023-10-10T08:09:17.328Z,15.33
2023-10-10T08:10:17.443Z,15.37
2023-10-10T08:11:17.333Z,15.36
2023-10-10T08:12:17.327Z,15.36
2023-10-10T08:13:17.280Z,15.39
2023-10-10T08:14:17.413Z,15.40
2023-10-10T08:15:17.241Z,15.43
2023-10-10T08:16:17.277Z,15.42
2023-10-10T08:17:17.257Z,15.42
2023-10-10T08:18:17.314Z,15.46
2023-10-10T08:19:17.211Z,15.44
2023-10-10T08:20:17.215Z,15.47
2023-10-10T08:21:17.189Z,15.52
2023-10-10T08:22:17.198Z,15.52
2023-10-10T08:23:17.230Z,15.57
2023-10-10T08:24:17.372Z,15.57
2023-10-10T08:25:17.147Z,15.57
2023-10-10T08:26:17.201Z,15.61
2023-10-10T08:27:17.143Z,15.64
2023-10-10T08:28:17.162Z,15.67
2023-10-10T08:29:17.111Z,15.65
2023-10-10T08:30:17.120Z,15.68
2023-10-10T08:31:17.098Z,15.70
2023-10-10T08:32:17.103Z,15.73
2023-10-10T08:33:17.240Z,15.76
2023-10-10T08:34:17.286Z,15.77
2023-10-10T08:35:17.073Z,15.79
2023-10-10T08:36:17.037Z,15.82
2023-10-10T08:37:17.087Z,15.83
2023-10-10T08:38:17.019Z,15.86
2023-10-10T08:39:16.993Z,15.88
2023-10-10T08:40:17.002Z,15.91
2023-10-10T08:41:16.989Z,15.95
2023-10-10T08:42:16.986Z,15.97
2023-10-10T08:43:16.949Z,16.00
2023-10-10T08:44:17.233Z,16.00
2023-10-10T08:45:16.918Z,16.01
2023-10-10T08:46:16.999Z,16.02
2023-10-10T08:47:16.967Z,16.05
2023-10-10T08:48:17.073Z,16.09
2023-10-10T08:49:16.883Z,16.10
2023-10-10T08:50:16.948Z,16.12
2023-10-10T08:51:16.859Z,16.15
2023-10-10T08:52:16.898Z,16.16
2023-10-10T08:53:16.898Z,16.20
2023-10-10T08:54:18.081Z,16.20
2023-10-10T08:55:16.853Z,16.24
2023-10-10T08:56:16.862Z,16.26
2023-10-10T08:57:16.806Z,16.26
2023-10-10T08:58:16.804Z,16.29
2023-10-10T08:59:16.829Z,16.31
2023-10-10T09:00:16.807Z,16.33
2023-10-10T09:01:16.853Z,16.36
2023-10-10T09:02:16.766Z,16.38
2023-10-10T09:03:16.924Z,16.39
2023-10-10T09:04:17.034Z,16.43
2023-10-10T09:05:16.750Z,16.47
2023-10-10T09:06:16.714Z,16.49
2023-10-10T09:07:16.744Z,16.51
2023-10-10T09:08:16.739Z,16.54
2023-10-10T09:09:16.667Z,16.56
2023-10-10T09:10:16.678Z,16.61
2023-10-10T09:11:16.673Z,16.65
2023-10-10T09:12:16.660Z,16.68
2023-10-10T09:13:16.641Z,16.68
2023-10-10T09:14:16.736Z,16.72
2023-10-10T09:15:16.596Z,16.72
2023-10-10T09:16:16.651Z,16.75
2023-10-10T09:17:16.641Z,16.78
2023-10-10T09:18:16.596Z,16.79
2023-10-10T09:19:16.714Z,16.83
2023-10-10T09:20:16.568Z,16.84
2023-10-10T09:21:16.552Z,16.87
2023-10-10T09:22:16.528Z,16.90
2023-10-10T09:23:16.580Z,16.93
2023-10-10T09:24:16.725Z,16.96
2023-10-10T09:25:16.524Z,16.97
2023-10-10T09:26:16.516Z,17.01
2023-10-10T09:27:16.506Z,17.02
2023-10-10T09:28:16.830Z,17.05
2023-10-10T09:29:17.068Z,17.08
2023-10-10T09:30:16.444Z,17.06
2023-10-10T09:31:16.483Z,17.12
2023-10-10T09:32:16.460Z,17.14
2023-10-10T09:33:16.509Z,17.16
2023-10-10T09:34:16.489Z,17.16
2023-10-10T09:35:16.439Z,17.19
2023-10-10T09:36:16.373Z,17.22
2023-10-10T09:37:16.404Z,17.24
2023-10-10T09:38:16.367Z,17.27
2023-10-10T09:39:16.391Z,17.29
2023-10-10T09:40:16.341Z,17.31
2023-10-10T09:41:16.411Z,17.30
2023-10-10T09:42:16.360Z,17.34
2023-10-10T09:43:16.308Z,17.33
2023-10-10T09:44:16.548Z,17.34
2023-10-10T09:45:16.339Z,17.39
2023-10-10T09:46:16.286Z,17.38
2023-10-10T09:47:16.293Z,17.41
2023-10-10T09:48:16.361Z,17.41
2023-10-10T09:49:16.258Z,17.44
2023-10-10T09:50:16.228Z,17.46
2023-10-10T09:51:16.265Z,17.46
2023-10-10T09:52:16.199Z,17.46
2023-10-10T09:53:16.249Z,17.52
2023-10-10T09:54:16.347Z,17.54
2023-10-10T09:55:16.180Z,17.57
2023-10-10T09:56:16.236Z,17.57
2023-10-10T09:57:19.026Z,17.60
2023-10-10T09:58:16.143Z,17.63
2023-10-10T09:59:16.183Z,17.63
2023-10-10T10:00:27.327Z,17.60
2023-10-10T10:01:16.126Z,17.63
2023-10-10T10:02:16.133Z,17.65
2023-10-10T10:03:16.152Z,17.65
2023-10-10T10:04:16.216Z,17.67
2023-10-10T10:05:16.134Z,17.70
2023-10-10T10:06:16.062Z,17.68
2023-10-10T10:07:16.057Z,17.74
2023-10-10T10:08:16.093Z,17.72
2023-10-10T10:09:16.061Z,17.74
2023-10-10T10:10:16.022Z,17.78
2023-10-10T10:11:16.042Z,17.79
2023-10-10T10:12:15.998Z,17.79
2023-10-10T10:13:15.989Z,17.83
2023-10-10T10:14:18.046Z,17.83
2023-10-10T10:15:15.979Z,17.87
2023-10-10T10:16:15.981Z,17.86
2023-10-10T10:17:15.960Z,17.87
2023-10-10T10:18:15.970Z,17.92
2023-10-10T10:19:15.958Z,17.94
2023-10-10T10:20:15.979Z,17.95
2023-10-10T10:21:15.908Z,17.95
2023-10-10T10:22:15.888Z,17.98
2023-10-10T10:23:15.906Z,18.00
2023-10-10T10:24:16.132Z,18.01
2023-10-10T10:25:15.871Z,18.05
2023-10-10T10:26:15.894Z,18.08
2023-10-10T10:27:15.849Z,18.07
2023-10-10T10:28:16.143Z,18.11
2023-10-10T10:29:15.893Z,18.11
2023-10-10T10:30:15.800Z,18.16
2023-10-10T10:31:15.831Z,18.15
2023-10-10T10:32:15.856Z,18.18
2023-10-10T10:33:15.901Z,18.19
2023-10-10T10:34:15.910Z,18.22
2023-10-10T10:35:15.772Z,18.22
2023-10-10T10:36:16.420Z,18.25
2023-10-10T10:37:15.743Z,18.28
2023-10-10T10:38:15.750Z,18.29
2023-10-10T10:39:15.788Z,18.29
2023-10-10T10:40:15.694Z,18.33
2023-10-10T10:41:15.708Z,18.34
2023-10-10T10:42:15.678Z,18.35
2023-10-10T10:43:15.900Z,18.40
2023-10-10T10:44:15.808Z,18.38
2023-10-10T10:45:15.650Z,18.43
2023-10-10T10:46:15.760Z,18.44
2023-10-10T10:47:16.910Z,18.45
2023-10-10T10:48:15.767Z,18.52
2023-10-10T10:49:15.625Z,18.53
2023-10-10T10:50:15.629Z,18.56
2023-10-10T10:51:15.607Z,18.58
2023-10-10T10:52:15.616Z,18.60
2023-10-10T10:53:15.589Z,18.63
2023-10-10T10:54:15.683Z,18.66
2023-10-10T10:55:15.552Z,18.70
2023-10-10T10:56:15.577Z,18.74
2023-10-10T10:57:15.521Z,18.78
2023-10-10T10:58:15.503Z,18.78
2023-10-10T10:59:15.814Z,18.83
2023-10-10T11:00:15.561Z,18.83
2023-10-10T11:01:15.510Z,18.88
2023-10-10T11:02:15.585Z,18.88
2023-10-10T11:03:15.582Z,18.92
2023-10-10T11:04:15.691Z,18.95
2023-10-10T11:05:15.543Z,18.99
2023-10-10T11:06:15.422Z,19.07
2023-10-10T11:07:15.413Z,19.09
2023-10-10T11:08:15.434Z,19.14
2023-10-10T11:09:15.417Z,19.18
2023-10-10T11:10:15.367Z,19.18
2023-10-10T11:11:15.433Z,19.21
2023-10-10T11:12:15.352Z,19.24
2023-10-10T11:13:15.366Z,19.29
2023-10-10T11:14:15.618Z,19.29
2023-10-10T11:15:15.326Z,19.30
2023-10-10T11:16:15.337Z,19.31
2023-10-10T11:17:15.351Z,19.33
2023-10-10T11:18:15.391Z,19.39
2023-10-10T11:19:15.477Z,19.44
2023-10-10T11:20:15.321Z,19.48
2023-10-10T11:21:15.275Z,19.55
2023-10-10T11:22:15.243Z,19.55
2023-10-10T11:23:15.277Z,19.58
2023-10-10T11:24:15.482Z,19.59
2023-10-10T11:25:15.230Z,19.62
2023-10-10T11:26:15.290Z,19.63
2023-10-10T11:27:15.555Z,19.63
2023-10-10T11:28:15.181Z,19.67
2023-10-10T11:29:15.178Z,19.67
2023-10-10T11:30:15.163Z,19.69
2023-10-10T11:31:16.291Z,19.69
2023-10-10T11:32:15.202Z,19.71
2023-10-10T11:33:15.235Z,19.73
2023-10-10T11:34:15.270Z,19.74
2023-10-10T11:35:15.119Z,19.77
2023-10-10T11:36:15.123Z,19.81
2023-10-10T11:37:15.142Z,19.85
2023-10-10T11:38:15.120Z,19.89
2023-10-10T11:39:15.074Z,19.94
2023-10-10T11:40:15.053Z,19.99
2023-10-10T11:41:15.183Z,20.02
2023-10-10T11:42:15.046Z,20.04
2023-10-10T11:43:15.036Z,20.09
2023-10-10T11:44:15.190Z,20.16
2023-10-10T11:45:15.072Z,20.21
2023-10-10T11:46:15.016Z,20.24
2023-10-10T11:47:15.019Z,20.32
2023-10-10T11:48:15.042Z,20.37
2023-10-10T11:49:14.964Z,20.39
2023-10-10T11:50:14.981Z,20.43
2023-10-10T11:51:14.946Z,20.47
2023-10-10T11:52:14.926Z,20.52
2023-10-10T11:53:14.994Z,20.60
2023-10-10T11:54:15.173Z,20.63
2023-10-10T11:55:14.892Z,20.66
2023-10-10T11:56:14.984Z,20.70
2023-10-10T11:57:14.880Z,20.70
2023-10-10T11:58:14.856Z,20.74
2023-10-10T11:59:14.874Z,20.75
2023-10-10T12:00:27.110Z,20.80
2023-10-10T12:01:14.902Z,20.84
2023-10-10T12:02:14.916Z,20.88
2023-10-10T12:03:14.946Z,20.92
2023-10-10T12:04:14.953Z,20.97
2023-10-10T12:05:14.809Z,21.00
2023-10-10T12:06:14.786Z,21.03
2023-10-10T12:07:14.769Z,21.07
2023-10-10T12:08:14.758Z,21.07
2023-10-10T12:09:14.759Z,21.12
2023-10-10T12:10:14.747Z,21.12
2023-10-10T12:11:14.756Z,21.14
2023-10-10T12:12:14.755Z,21.15
2023-10-10T12:13:14.704Z,21.15
2023-10-10T12:14:14.884Z,21.18
2023-10-10T12:15:14.709Z,21.20
2023-10-10T12:16:14.713Z,21.22
2023-10-10T12:17:14.739Z,21.25
2023-10-10T12:18:14.708Z,21.29
2023-10-10T12:19:14.641Z,21.29
2023-10-10T12:20:14.718Z,21.32
2023-10-10T12:21:14.640Z,21.32
2023-10-10T12:22:14.622Z,21.35
2023-10-10T12:23:14.611Z,21.37
2023-10-10T12:24:14.616Z,21.45
2023-10-10T12:25:14.571Z,21.46
2023-10-10T12:26:14.564Z,21.51
2023-10-10T12:27:14.553Z,21.54
2023-10-10T12:28:14.556Z,21.54
2023-10-10T12:29:14.588Z,21.60
2023-10-10T12:30:14.506Z,21.60
2023-10-10T12:31:14.537Z,21.64
2023-10-10T12:32:14.547Z,21.69
2023-10-10T12:33:14.592Z,21.72
2023-10-10T12:34:14.683Z,21.75
2023-10-10T12:35:14.509Z,21.76
2023-10-10T12:36:14.444Z,21.75
2023-10-10T12:37:14.452Z,21.77
2023-10-10T12:38:14.493Z,21.79
2023-10-10T12:39:14.427Z,21.77
2023-10-10T12:40:14.414Z,21.79
2023-10-10T12:41:14.400Z,21.77
2023-10-10T12:42:14.374Z,21.82
2023-10-10T12:43:14.428Z,21.83
2023-10-10T12:44:14.601Z,21.83
2023-10-10T12:45:14.366Z,21.83
2023-10-10T12:46:14.339Z,21.83
2023-10-10T12:47:15.411Z,21.82
2023-10-10T12:48:14.380Z,21.83
2023-10-10T12:49:14.347Z,21.85
2023-10-10T12:50:14.298Z,21.88
2023-10-10T12:51:14.345Z,21.89
2023-10-10T12:52:14.285Z,21.89
2023-10-10T12:53:14.321Z,21.91
2023-10-10T12:54:14.321Z,21.88
2023-10-10T12:55:14.318Z,21.91
2023-10-10T12:56:14.236Z,21.91
2023-10-10T12:57:14.230Z,21.89
2023-10-10T12:58:14.208Z,21.91
2023-10-10T13:00:14.215Z,21.95
2023-10-10T13:01:14.265Z,21.96
2023-10-10T13:02:14.201Z,21.99
2023-10-10T13:03:14.293Z,22.00
2023-10-10T13:04:14.277Z,22.04
2023-10-10T13:05:14.159Z,22.07
2023-10-10T13:06:14.128Z,22.10
2023-10-10T13:07:14.169Z,22.10
2023-10-10T13:08:14.101Z,22.15
2023-10-10T13:09:14.100Z,22.20
2023-10-10T13:10:14.083Z,22.26
2023-10-10T13:11:14.089Z,22.30
2023-10-10T13:12:14.065Z,22.35
2023-10-10T13:13:14.087Z,22.43
2023-10-10T13:14:14.147Z,22.48
2023-10-10T13:15:14.042Z,22.54
2023-10-10T13:16:14.070Z,22.59
2023-10-10T13:17:14.027Z,22.66
2023-10-10T13:18:14.051Z,22.72
2023-10-10T13:19:14.020Z,22.75
2023-10-10T13:20:13.976Z,22.80
2023-10-10T13:21:13.978Z,22.83
2023-10-10T13:22:13.971Z,22.84
2023-10-10T13:23:13.973Z,22.88
2023-10-10T13:24:14.008Z,22.85
2023-10-10T13:25:13.983Z,22.87
2023-10-10T13:26:13.918Z,22.87
2023-10-10T13:27:13.924Z,22.90
2023-10-10T13:28:13.893Z,22.93
2023-10-10T13:29:15.964Z,22.96
2023-10-10T13:30:13.929Z,22.98
2023-10-10T13:31:13.917Z,22.98
2023-10-10T13:32:13.863Z,22.99
2023-10-10T13:33:13.937Z,23.00
2023-10-10T13:34:13.960Z,23.03
2023-10-10T13:35:13.825Z,23.06
2023-10-10T13:36:13.861Z,23.09
2023-10-10T13:37:13.795Z,23.13
2023-10-10T13:38:13.798Z,23.15
2023-10-10T13:39:13.779Z,23.18
2023-10-10T13:40:13.790Z,23.21
2023-10-10T13:41:13.778Z,23.23
2023-10-10T13:42:13.785Z,23.24
2023-10-10T13:43:13.730Z,23.24
2023-10-10T13:44:13.762Z,23.23
2023-10-10T13:45:13.720Z,23.24
2023-10-10T13:46:13.751Z,23.24
2023-10-10T13:47:13.696Z,23.27
2023-10-10T13:48:13.828Z,23.28
2023-10-10T13:49:13.674Z,23.31
2023-10-10T13:50:13.674Z,23.32
2023-10-10T13:51:13.645Z,23.34
2023-10-10T13:52:13.681Z,23.39
2023-10-10T13:53:13.629Z,23.43
2023-10-10T13:54:13.660Z,23.44
2023-10-10T13:55:13.603Z,23.51
2023-10-10T13:56:13.611Z,23.55
2023-10-10T13:57:13.584Z,23.56
2023-10-10T13:58:13.593Z,23.62
2023-10-10T13:59:13.598Z,23.63
2023-10-10T14:00:13.569Z,23.63
2023-10-10T14:01:13.610Z,23.65
2023-10-10T14:02:13.589Z,23.68
2023-10-10T14:03:13.676Z,23.71
2023-10-10T14:04:13.753Z,23.73
2023-10-10T14:05:13.522Z,23.77
2023-10-10T14:06:13.547Z,23.80
2023-10-10T14:07:13.476Z,23.83
2023-10-10T14:08:13.476Z,23.84
2023-10-10T14:09:13.462Z,23.87
2023-10-10T14:10:13.500Z,23.91
2023-10-10T14:11:13.481Z,23.93
2023-10-10T14:12:13.442Z,23.95
2023-10-10T14:13:19.589Z,23.96
2023-10-10T14:14:13.431Z,23.96
2023-10-10T14:15:13.401Z,23.98
2023-10-10T14:16:13.424Z,23.99
2023-10-10T14:17:13.404Z,24.02
2023-10-10T14:18:13.553Z,24.06
2023-10-10T14:19:13.354Z,24.10
2023-10-10T14:20:13.368Z,24.11
2023-10-10T14:21:13.336Z,24.13
2023-10-10T14:22:13.338Z,24.14
2023-10-10T14:23:13.425Z,24.17
2023-10-10T14:24:13.328Z,24.20
2023-10-10T14:25:13.306Z,24.21
2023-10-10T14:26:13.297Z,24.23
2023-10-10T14:27:13.304Z,24.26
2023-10-10T14:28:13.274Z,24.29
2023-10-10T14:29:13.294Z,24.29
2023-10-10T14:30:13.300Z,24.33
2023-10-10T14:31:13.277Z,24.36
2023-10-10T14:32:26.569Z,24.40
2023-10-10T14:33:13.298Z,24.45
2023-10-10T14:34:13.507Z,24.48
2023-10-10T14:35:13.203Z,24.50
2023-10-10T14:36:13.214Z,24.51
2023-10-10T14:37:33.646Z,24.51
2023-10-10T14:38:13.168Z,24.55
2023-10-10T14:39:13.135Z,24.58
2023-10-10T14:40:13.181Z,24.55
2023-10-10T14:41:13.120Z,24.58
2023-10-10T14:42:13.135Z,24.61
2023-10-10T14:43:13.099Z,24.63
2023-10-10T14:44:13.113Z,24.60
2023-10-10T14:45:13.139Z,24.57
2023-10-10T14:46:13.135Z,24.58
2023-10-10T14:47:13.064Z,24.60
2023-10-10T14:48:13.171Z,24.60
2023-10-10T14:49:13.032Z,24.65
2023-10-10T14:50:13.053Z,24.65
2023-10-10T14:51:13.025Z,24.68
2023-10-10T14:52:13.056Z,24.70
2023-10-10T14:53:13.008Z,24.69
2023-10-10T14:54:13.109Z,24.70
2023-10-10T14:55:12.990Z,24.69
2023-10-10T14:56:12.981Z,24.69
2023-10-10T14:57:12.970Z,24.68
2023-10-10T14:58:12.963Z,24.68
2023-10-10T14:59:12.930Z,24.68
2023-10-10T15:00:13.008Z,24.66
2023-10-10T15:01:12.917Z,24.66
2023-10-10T15:02:12.909Z,24.66
2023-10-10T15:03:13.156Z,24.68
2023-10-10T15:04:12.899Z,24.69
2023-10-10T15:05:12.908Z,24.69
2023-10-10T15:06:12.865Z,24.68
2023-10-10T15:07:12.847Z,24.69
2023-10-10T15:08:12.848Z,24.74
2023-10-10T15:09:12.822Z,24.70
2023-10-10T15:10:12.906Z,24.70
2023-10-10T15:11:12.832Z,24.68
2023-10-10T15:12:12.828Z,24.70
2023-10-10T15:13:12.782Z,24.69
2023-10-10T15:14:12.788Z,24.70
2023-10-10T15:15:12.788Z,24.73
2023-10-10T15:16:12.813Z,24.73
2023-10-10T15:17:12.767Z,24.70
2023-10-10T15:18:12.935Z,24.69
2023-10-10T15:19:12.725Z,24.69
2023-10-10T15:20:12.745Z,24.70
2023-10-10T15:21:12.724Z,24.70
2023-10-10T15:22:12.731Z,24.76
2023-10-10T15:23:12.716Z,24.77
2023-10-10T15:24:12.898Z,24.74
2023-10-10T15:25:12.660Z,24.74
2023-10-10T15:26:12.670Z,24.74
2023-10-10T15:27:12.667Z,24.70
2023-10-10T15:28:12.633Z,24.68
2023-10-10T15:29:12.617Z,24.68
2023-10-10T15:30:12.611Z,24.69
2023-10-10T15:31:12.599Z,24.73
2023-10-10T15:32:12.586Z,24.73
2023-10-10T15:33:12.618Z,24.70
2023-10-10T15:34:12.572Z,24.74
2023-10-10T15:35:12.554Z,24.74
2023-10-10T15:36:12.577Z,24.74
2023-10-10T15:37:12.545Z,24.76
2023-10-10T15:38:12.530Z,24.76
2023-10-10T15:39:12.580Z,24.77
2023-10-10T15:40:12.514Z,24.77
2023-10-10T15:41:12.488Z,24.78
2023-10-10T15:42:12.477Z,24.77
2023-10-10T15:43:29.898Z,24.77
2023-10-10T15:44:12.473Z,24.76
2023-10-10T15:45:12.447Z,24.74
2023-10-10T15:46:12.509Z,24.73
2023-10-10T15:47:12.418Z,24.69
2023-10-10T15:48:12.521Z,24.66
2023-10-10T15:49:24.813Z,24.61
2023-10-10T15:50:12.413Z,24.57
2023-10-10T15:51:12.375Z,24.53
2023-10-10T15:52:12.382Z,24.48
2023-10-10T15:53:12.357Z,24.43
2023-10-10T15:54:12.382Z,24.39
2023-10-10T15:55:12.367Z,24.36
2023-10-10T15:56:12.337Z,24.35
2023-10-10T15:57:12.321Z,24.30
2023-10-10T15:58:12.321Z,24.29
2023-10-10T15:59:12.318Z,24.23
2023-10-10T16:00:12.315Z,24.18
2023-10-10T16:01:12.279Z,24.16
2023-10-10T16:02:12.281Z,24.10
2023-10-10T16:03:12.318Z,24.05
2023-10-10T16:04:12.286Z,23.99
2023-10-10T16:05:12.234Z,23.96
2023-10-10T16:06:12.296Z,23.93
2023-10-10T16:07:12.224Z,23.88
2023-10-10T16:08:12.231Z,23.83
2023-10-10T16:09:12.217Z,23.81
2023-10-10T16:10:12.206Z,23.76
2023-10-10T16:11:12.175Z,23.74
2023-10-10T16:12:12.179Z,23.68
2023-10-10T16:13:12.170Z,23.61
2023-10-10T16:14:12.151Z,23.54
2023-10-10T16:15:27.743Z,23.47
2023-10-10T16:16:12.192Z,23.46
2023-10-10T16:17:12.102Z,23.40
2023-10-10T16:18:12.182Z,23.37
2023-10-10T16:19:12.084Z,23.34
2023-10-10T16:20:12.087Z,23.28
2023-10-10T16:21:12.084Z,23.27
2023-10-10T16:22:12.068Z,23.24
2023-10-10T16:23:12.057Z,23.21
2023-10-10T16:24:12.054Z,23.17
2023-10-10T16:25:12.026Z,23.17
2023-10-10T16:26:12.053Z,23.12
2023-10-10T16:27:12.006Z,23.08
2023-10-10T16:28:11.996Z,23.05
2023-10-10T16:29:11.987Z,23.00
2023-10-10T16:30:11.992Z,22.99
2023-10-10T16:31:11.954Z,22.94
2023-10-10T16:32:11.975Z,22.88
2023-10-10T16:33:12.037Z,22.84
2023-10-10T16:34:11.946Z,22.78
2023-10-10T16:35:11.940Z,22.75
2023-10-10T16:36:11.938Z,22.69
2023-10-10T16:37:11.896Z,22.65
2023-10-10T16:38:11.898Z,22.60
2023-10-10T16:39:11.864Z,22.57
2023-10-10T16:40:11.878Z,22.53
2023-10-10T16:41:11.887Z,22.47
2023-10-10T16:42:11.860Z,22.43
2023-10-10T16:43:11.835Z,22.36
2023-10-10T16:44:11.836Z,22.33
2023-10-10T16:45:11.948Z,22.29
2023-10-10T16:46:11.846Z,22.25
2023-10-10T16:47:11.802Z,22.22
2023-10-10T16:48:11.855Z,22.18
2023-10-10T16:49:11.762Z,22.15
2023-10-10T16:50:11.784Z,22.13
2023-10-10T16:51:11.746Z,22.10
2023-10-10T16:52:11.797Z,22.06
2023-10-10T16:53:11.902Z,22.02
2023-10-10T16:54:11.746Z,21.99
2023-10-10T16:55:11.740Z,21.95
2023-10-10T16:56:11.701Z,21.91
2023-10-10T16:57:11.677Z,21.85
2023-10-10T16:58:11.735Z,21.82
2023-10-10T16:59:11.702Z,21.79
2023-10-10T17:00:11.677Z,21.76
2023-10-10T17:01:11.673Z,21.69
2023-10-10T17:02:11.636Z,21.66
2023-10-10T17:03:11.753Z,21.62
2023-10-10T17:04:11.869Z,21.57
2023-10-10T17:05:11.607Z,21.54
2023-10-10T17:06:11.600Z,21.50
2023-10-10T17:07:11.609Z,21.46
2023-10-10T17:08:11.574Z,21.45
2023-10-10T17:09:11.594Z,21.40
2023-10-10T17:10:11.638Z,21.39
2023-10-10T17:11:11.535Z,21.35
2023-10-10T17:12:11.557Z,21.35
2023-10-10T17:13:11.580Z,21.32
2023-10-10T17:14:11.561Z,21.30
2023-10-10T17:15:11.539Z,21.27
2023-10-10T17:16:11.579Z,21.24
2023-10-10T17:17:11.515Z,21.22
2023-10-10T17:18:11.727Z,21.21
2023-10-10T17:19:17.398Z,21.18
2023-10-10T17:20:11.510Z,21.15
2023-10-10T17:21:11.470Z,21.14
2023-10-10T17:22:11.475Z,21.12
2023-10-10T17:23:11.455Z,21.12
2023-10-10T17:24:11.505Z,21.09
2023-10-10T17:25:11.458Z,21.06